Terminal Aerodrome Forecast
Issued by NWS Lake Charles, LA

Home | Current Version | Previous Version | Text Only | Print | Product List | Glossary On
Versions: 1 2 3 4 5 6 7 8 9 10 11 12 13 14 15 16
000
FTUS44 KLCH 261729
TAFARA
TAF
KARA 261729Z 2618/2718 18010G15KT P6SM SCT025
     FM270100 17008KT P6SM BKN015
     FM270300 17005KT P6SM OVC007
     FM271500 18006KT P6SM OVC025=

USA.gov is the U.S. government's official web portal to all federal, state and local government web resources and services.